createdAt,value
2023-04-19T00:00:44.028Z,6.27
2023-04-19T00:03:11.550Z,6.31
2023-04-19T00:05:41.570Z,6.24
2023-04-19T00:08:08.243Z,6.16
2023-04-19T00:10:35.927Z,6.04
2023-04-19T00:13:03.188Z,6.04
2023-04-19T00:15:29.632Z,6.02
2023-04-19T00:17:56.626Z,5.99
2023-04-19T00:20:23.250Z,5.96
2023-04-19T00:22:49.808Z,6.03
2023-04-19T00:25:16.234Z,5.99
2023-04-19T00:27:42.793Z,5.96
2023-04-19T00:30:09.570Z,5.90
2023-04-19T00:32:36.315Z,5.90
2023-04-19T00:35:02.767Z,5.86
2023-04-19T00:37:31.778Z,5.78
2023-04-19T00:39:58.320Z,5.79
2023-04-19T00:42:26.267Z,5.76
2023-04-19T00:44:52.716Z,5.69
2023-04-19T00:47:19.384Z,5.63
2023-04-19T00:49:46.482Z,5.49
2023-04-19T00:52:13.280Z,5.52
2023-04-19T00:54:41.084Z,5.47
2023-04-19T00:57:07.529Z,5.46
2023-04-19T00:59:35.146Z,5.37
2023-04-19T01:02:03.849Z,5.30
2023-04-19T01:04:30.593Z,5.25
2023-04-19T01:06:57.395Z,5.14
2023-04-19T01:09:23.854Z,5.14
2023-04-19T01:11:50.974Z,5.11
2023-04-19T01:14:17.501Z,5.10
2023-04-19T01:16:46.629Z,5.08
2023-04-19T01:19:13.039Z,5.10
2023-04-19T01:21:40.393Z,4.97
2023-04-19T01:24:07.124Z,4.97
2023-04-19T01:26:33.747Z,4.99
2023-04-19T01:29:02.224Z,4.97
2023-04-19T01:31:28.881Z,4.96
2023-04-19T01:33:55.589Z,4.95
2023-04-19T01:36:22.293Z,4.93
2023-04-19T01:38:49.911Z,4.93
2023-04-19T01:41:16.613Z,4.94
2023-04-19T01:43:43.200Z,4.91
2023-04-19T01:46:09.778Z,4.82
2023-04-19T01:48:37.850Z,4.77
2023-04-19T01:51:04.573Z,4.69
2023-04-19T01:53:33.388Z,4.70
2023-04-19T01:56:00.439Z,4.70
2023-04-19T01:58:26.837Z,4.68
2023-04-19T02:00:54.091Z,4.64
2023-04-19T02:03:20.652Z,4.62
2023-04-19T02:05:49.307Z,4.56
2023-04-19T02:08:15.963Z,4.58
2023-04-19T02:10:42.452Z,4.61
2023-04-19T02:13:09.114Z,4.60
2023-04-19T02:15:37.260Z,4.55
2023-04-19T02:18:06.733Z,4.57
2023-04-19T02:20:33.450Z,4.56
2023-04-19T02:22:59.928Z,4.49
2023-04-19T02:25:27.451Z,4.48
2023-04-19T02:27:54.053Z,4.42
2023-04-19T02:30:20.954Z,4.35
2023-04-19T02:32:51.184Z,4.31
2023-04-19T02:35:17.676Z,4.28
2023-04-19T02:37:44.587Z,4.26
2023-04-19T02:40:11.224Z,4.23
2023-04-19T02:42:37.732Z,4.21
2023-04-19T02:45:05.684Z,4.19
2023-04-19T02:47:32.327Z,4.06
2023-04-19T02:50:00.392Z,4.03
2023-04-19T02:52:27.918Z,4.08
2023-04-19T02:54:54.518Z,4.17
2023-04-19T02:57:21.226Z,4.07
2023-04-19T02:59:48.306Z,4.10
2023-04-19T03:02:15.496Z,4.03
2023-04-19T03:04:43.380Z,4.02
2023-04-19T03:07:10.140Z,3.96
2023-04-19T03:09:37.063Z,3.94
2023-04-19T03:12:04.708Z,3.88
2023-04-19T03:14:31.238Z,4.01
2023-04-19T03:16:57.727Z,3.98
2023-04-19T03:19:24.263Z,4.01
2023-04-19T03:21:51.904Z,4.03
2023-04-19T03:24:20.346Z,4.05
2023-04-19T03:26:50.705Z,4.03
2023-04-19T03:29:22.128Z,4.03
2023-04-19T03:31:57.662Z,3.99
2023-04-19T03:34:24.140Z,3.88
2023-04-19T03:36:50.824Z,3.90
2023-04-19T03:39:18.538Z,3.91
2023-04-19T03:41:48.353Z,3.87
2023-04-19T03:44:33.472Z,3.86
2023-04-19T03:47:02.374Z,3.87
2023-04-19T03:49:33.471Z,3.84
2023-04-19T03:52:04.494Z,3.78
2023-04-19T03:54:30.922Z,3.76
2023-04-19T03:56:59.457Z,3.72
2023-04-19T03:59:26.436Z,3.60
2023-04-19T04:01:53.676Z,3.71
2023-04-19T04:04:20.501Z,3.75
2023-04-19T04:06:47.256Z,3.81
2023-04-19T04:09:16.233Z,3.81
2023-04-19T04:11:43.443Z,3.83
2023-04-19T04:14:10.404Z,3.78
2023-04-19T04:16:38.394Z,3.78
2023-04-19T04:19:05.452Z,3.77
2023-04-19T04:21:34.845Z,3.81
2023-04-19T04:24:03.811Z,3.78
2023-04-19T04:26:39.480Z,3.84
2023-04-19T04:29:17.518Z,3.78
2023-04-19T04:31:44.948Z,3.82
2023-04-19T04:34:14.274Z,3.76
2023-04-19T04:36:50.544Z,3.75
2023-04-19T04:39:18.807Z,3.84
2023-04-19T04:41:46.469Z,3.86
2023-04-19T04:44:13.209Z,3.88
2023-04-19T04:46:42.056Z,3.94
2023-04-19T04:49:11.190Z,4.03
2023-04-19T04:51:41.688Z,4.00
2023-04-19T04:54:08.896Z,4.08
2023-04-19T04:56:36.819Z,4.15
2023-04-19T04:59:03.360Z,4.25
2023-04-19T05:01:34.595Z,4.34
2023-04-19T05:04:01.746Z,4.34
2023-04-19T05:06:28.308Z,4.39
2023-04-19T05:08:54.772Z,4.40
2023-04-19T05:11:33.704Z,4.41
2023-04-19T05:14:00.796Z,4.51
2023-04-19T05:16:27.934Z,4.51
2023-04-19T05:18:55.361Z,4.54
2023-04-19T05:21:23.107Z,4.62
2023-04-19T05:23:49.739Z,4.61
2023-04-19T05:26:16.262Z,4.71
2023-04-19T05:28:44.645Z,4.91
2023-04-19T05:31:21.025Z,4.90
2023-04-19T05:34:06.192Z,4.99
2023-04-19T05:36:32.920Z,5.02
2023-04-19T05:38:59.344Z,5.14
2023-04-19T05:41:25.934Z,5.29
2023-04-19T05:43:52.349Z,5.35
2023-04-19T05:46:19.866Z,5.47
2023-04-19T05:48:46.540Z,5.50
2023-04-19T05:51:32.013Z,5.67
2023-04-19T05:54:12.487Z,5.80
2023-04-19T05:56:40.325Z,5.96
2023-04-19T05:59:06.945Z,6.06
2023-04-19T06:01:33.570Z,6.20
2023-04-19T06:04:00.282Z,6.24
2023-04-19T06:06:27.543Z,6.36
2023-04-19T06:08:55.024Z,6.46
2023-04-19T06:11:26.875Z,6.57
2023-04-19T06:14:02.094Z,6.67
2023-04-19T06:16:28.856Z,6.76
2023-04-19T06:18:55.336Z,6.93
2023-04-19T06:21:21.819Z,7.03
2023-04-19T06:23:48.216Z,7.07
2023-04-19T06:26:15.037Z,7.17
2023-04-19T06:28:41.449Z,7.20
2023-04-19T06:31:07.906Z,7.36
2023-04-19T06:33:34.442Z,7.42
2023-04-19T06:36:01.474Z,7.58
2023-04-19T06:38:52.892Z,7.62
2023-04-19T06:41:19.494Z,7.70
2023-04-19T06:43:46.230Z,7.81
2023-04-19T06:46:14.422Z,7.92
2023-04-19T06:48:41.142Z,8.01
2023-04-19T06:51:07.794Z,8.10
2023-04-19T06:53:34.665Z,8.13
2023-04-19T06:56:02.491Z,8.25
2023-04-19T06:58:29.107Z,8.31
2023-04-19T07:00:56.118Z,8.41
2023-04-19T07:03:23.107Z,8.48
2023-04-19T07:05:49.941Z,8.67
2023-04-19T07:08:16.454Z,8.83
2023-04-19T07:10:43.766Z,8.80
2023-04-19T07:13:13.544Z,8.98
2023-04-19T07:15:40.206Z,9.08
2023-04-19T07:18:07.200Z,9.27
2023-04-19T07:20:34.004Z,9.31
2023-04-19T07:23:00.784Z,9.50
2023-04-19T07:25:27.469Z,9.68
2023-04-19T07:27:55.622Z,9.76
2023-04-19T07:30:22.617Z,9.84
2023-04-19T07:32:51.624Z,9.96
2023-04-19T07:35:19.439Z,10.06
2023-04-19T07:37:46.179Z,10.36
2023-04-19T07:40:12.979Z,10.50
2023-04-19T07:42:39.447Z,10.66
2023-04-19T07:45:07.098Z,10.94
2023-04-19T07:47:33.778Z,11.01
2023-04-19T07:50:00.302Z,11.30
2023-04-19T07:52:26.877Z,11.39
2023-04-19T07:54:53.536Z,11.57
2023-04-19T07:57:20.001Z,11.77
2023-04-19T07:59:46.456Z,11.87
2023-04-19T08:02:12.957Z,12.12
2023-04-19T08:04:40.219Z,12.22
2023-04-19T08:07:06.909Z,12.26
2023-04-19T08:09:34.330Z,12.30
2023-04-19T08:12:01.313Z,12.48
2023-04-19T08:14:37.816Z,12.71
2023-04-19T08:17:24.348Z,12.65
2023-04-19T08:19:53.803Z,12.70
2023-04-19T08:22:21.586Z,12.55
2023-04-19T08:24:51.290Z,12.83
2023-04-19T08:27:18.321Z,13.05
2023-04-19T08:29:45.866Z,13.04
2023-04-19T08:32:12.835Z,13.06
2023-04-19T08:34:40.478Z,13.10
2023-04-19T08:37:09.509Z,13.05
2023-04-19T08:39:36.445Z,12.99
2023-04-19T08:42:13.322Z,13.07
2023-04-19T08:45:09.412Z,13.16
2023-04-19T08:47:48.537Z,13.37
2023-04-19T08:50:31.938Z,13.50
2023-04-19T08:53:12.175Z,13.77
2023-04-19T08:56:06.716Z,13.80
2023-04-19T08:58:50.370Z,13.73
2023-04-19T09:01:33.720Z,13.65
2023-04-19T09:04:10.255Z,13.78
2023-04-19T09:06:47.392Z,13.67
2023-04-19T09:09:28.731Z,13.92
2023-04-19T09:12:02.694Z,13.95
2023-04-19T09:14:29.644Z,13.88
2023-04-19T09:17:16.250Z,14.00
2023-04-19T09:19:49.918Z,14.20
2023-04-19T09:22:17.269Z,14.06
2023-04-19T09:27:15.498Z,14.12
2023-04-19T09:29:41.954Z,14.19
2023-04-19T09:32:08.675Z,14.19
2023-04-19T09:34:36.220Z,13.90
2023-04-19T09:37:22.782Z,13.98
2023-04-19T09:39:59.325Z,13.84
2023-04-19T09:43:05.441Z,13.57
2023-04-19T09:45:45.369Z,13.44
2023-04-19T09:48:13.102Z,13.37
2023-04-19T09:51:05.713Z,13.13
2023-04-19T09:53:36.817Z,13.38
2023-04-19T09:56:05.412Z,13.41
2023-04-19T09:58:42.647Z,13.50
2023-04-19T10:01:17.191Z,13.49
2023-04-19T10:03:49.450Z,13.29
2023-04-19T10:06:35.657Z,13.18
2023-04-19T10:09:05.050Z,13.73
2023-04-19T10:11:38.739Z,14.00
2023-04-19T10:14:10.533Z,14.29
2023-04-19T10:16:39.138Z,14.55
2023-04-19T10:19:10.024Z,14.77
2023-04-19T10:21:38.127Z,14.91
2023-04-19T10:24:05.555Z,15.11
2023-04-19T10:27:12.130Z,15.19
2023-04-19T10:29:58.292Z,15.31
2023-04-19T10:32:29.530Z,15.40
2023-04-19T10:35:04.728Z,15.57
2023-04-19T10:37:31.987Z,15.46
2023-04-19T10:39:58.379Z,15.57
2023-04-19T10:42:24.851Z,15.42
2023-04-19T10:45:28.835Z,15.69
2023-04-19T10:47:55.843Z,15.97
2023-04-19T10:50:24.207Z,15.95
2023-04-19T10:52:50.773Z,16.01
2023-04-19T10:55:20.150Z,15.87
2023-04-19T10:58:06.408Z,15.78
2023-04-19T11:00:33.592Z,16.20
2023-04-19T11:03:03.379Z,16.23
2023-04-19T11:05:30.130Z,16.39
2023-04-19T11:07:57.701Z,16.74
2023-04-19T11:10:31.295Z,16.50
2023-04-19T11:12:58.167Z,16.66
2023-04-19T11:15:24.889Z,16.41
2023-04-19T11:18:00.945Z,16.62
2023-04-19T11:20:31.374Z,16.82
2023-04-19T11:23:00.939Z,16.51
2023-04-19T11:25:28.039Z,16.42
2023-04-19T11:27:55.661Z,16.83
2023-04-19T11:30:29.655Z,16.74
2023-04-19T11:32:57.472Z,16.92
2023-04-19T11:35:25.956Z,16.63
2023-04-19T11:37:53.973Z,16.63
2023-04-19T11:40:22.414Z,17.34
2023-04-19T11:42:57.663Z,17.64
2023-04-19T11:45:32.221Z,17.42
2023-04-19T11:48:00.573Z,17.31
2023-04-19T11:50:31.267Z,17.63
2023-04-19T11:52:58.893Z,17.57
2023-04-19T11:55:25.463Z,17.56
2023-04-19T11:57:52.225Z,17.69
2023-04-19T12:00:28.487Z,17.60
2023-04-19T12:02:55.601Z,17.93
2023-04-19T12:05:23.680Z,17.77
2023-04-19T12:08:10.925Z,17.95
2023-04-19T12:10:37.624Z,17.87
2023-04-19T12:13:17.405Z,18.28
2023-04-19T12:15:45.262Z,18.11
2023-04-19T12:18:12.604Z,17.99
2023-04-19T12:20:45.605Z,17.45
2023-04-19T12:23:14.023Z,17.98
2023-04-19T12:25:41.308Z,18.25
2023-04-19T12:28:07.896Z,18.30
2023-04-19T12:30:36.417Z,18.11
2023-04-19T12:33:03.406Z,18.05
2023-04-19T12:35:30.724Z,18.05
2023-04-19T12:37:58.951Z,18.26
2023-04-19T12:40:26.953Z,18.43
2023-04-19T12:42:53.955Z,18.38
2023-04-19T12:45:21.214Z,18.54
2023-04-19T12:47:48.715Z,18.60
2023-04-19T12:50:16.177Z,18.17
2023-04-19T12:52:46.014Z,17.28
2023-04-19T12:55:12.933Z,18.32
2023-04-19T12:57:39.580Z,18.34
2023-04-19T13:00:07.336Z,18.23
2023-04-19T13:02:35.016Z,18.33
2023-04-19T13:05:02.475Z,18.39
2023-04-19T13:07:29.019Z,18.46
2023-04-19T13:09:56.659Z,18.78
2023-04-19T13:12:23.993Z,18.70
2023-04-19T13:14:52.381Z,19.02
2023-04-19T13:17:20.138Z,18.41
2023-04-19T13:19:47.552Z,18.36
2023-04-19T13:22:15.028Z,18.84
2023-04-19T13:24:41.718Z,18.57
2023-04-19T13:27:09.068Z,18.79
2023-04-19T13:29:36.154Z,18.70
2023-04-19T13:32:02.680Z,18.76
2023-04-19T13:34:29.487Z,18.88
2023-04-19T13:36:57.504Z,18.61
2023-04-19T13:39:24.121Z,19.13
2023-04-19T13:41:50.874Z,19.12
2023-04-19T13:44:17.687Z,18.87
2023-04-19T13:46:44.502Z,18.72
2023-04-19T13:49:11.178Z,18.10
2023-04-19T13:51:49.034Z,18.17
2023-04-19T13:54:21.214Z,18.72
2023-04-19T13:56:50.569Z,18.70
2023-04-19T13:59:18.173Z,18.79
2023-04-19T14:01:44.604Z,19.08
2023-04-19T14:04:11.322Z,18.64
2023-04-19T14:06:37.975Z,18.71
2023-04-19T14:09:04.456Z,18.67
2023-04-19T14:11:31.101Z,18.14
2023-04-19T14:13:57.993Z,18.59
2023-04-19T14:16:25.269Z,18.51
2023-04-19T14:18:52.782Z,18.16
2023-04-19T14:21:19.558Z,18.09
2023-04-19T14:23:46.102Z,18.56
2023-04-19T14:26:12.620Z,18.10
2023-04-19T14:28:39.360Z,18.27
2023-04-19T14:31:06.276Z,18.35
2023-04-19T14:33:32.798Z,18.32
2023-04-19T14:35:59.224Z,18.13
2023-04-19T14:38:25.920Z,17.57
2023-04-19T14:40:52.297Z,18.13
2023-04-19T14:43:18.726Z,17.91
2023-04-19T14:45:45.172Z,17.99
2023-04-19T14:48:11.819Z,18.41
2023-04-19T14:50:38.237Z,18.59
2023-04-19T14:53:04.685Z,18.20
2023-04-19T14:55:31.102Z,18.16
2023-04-19T14:57:57.790Z,18.15
2023-04-19T15:00:24.267Z,18.33
2023-04-19T15:02:50.913Z,18.56
2023-04-19T15:05:17.803Z,18.75
2023-04-19T15:07:44.440Z,17.94
2023-04-19T15:10:11.118Z,17.50
2023-04-19T15:12:37.554Z,17.79
2023-04-19T15:15:05.599Z,17.62
2023-04-19T15:17:32.050Z,17.29
2023-04-19T15:19:58.649Z,17.76
2023-04-19T15:22:25.323Z,17.87
2023-04-19T15:24:52.049Z,16.94
2023-04-19T15:27:18.463Z,16.57
2023-04-19T15:29:47.661Z,17.09
2023-04-19T15:32:14.215Z,17.43
2023-04-19T15:34:40.804Z,17.64
2023-04-19T15:37:08.046Z,17.86
2023-04-19T15:39:34.680Z,17.36
2023-04-19T15:42:01.989Z,16.74
2023-04-19T15:44:28.980Z,17.04
2023-04-19T15:46:56.094Z,17.45
2023-04-19T15:49:22.692Z,16.66
2023-04-19T15:51:49.089Z,16.32
2023-04-19T15:54:15.818Z,16.13
2023-04-19T15:56:42.238Z,16.29
2023-04-19T15:59:08.745Z,16.88
2023-04-19T16:01:36.077Z,16.63
2023-04-19T16:04:04.170Z,16.66
2023-04-19T16:06:31.816Z,16.65
2023-04-19T16:08:58.365Z,16.65
2023-04-19T16:11:24.801Z,16.20
2023-04-19T16:13:51.312Z,16.70
2023-04-19T16:16:17.856Z,16.69
2023-04-19T16:18:44.342Z,16.62
2023-04-19T16:21:10.754Z,16.37
2023-04-19T16:23:37.452Z,16.17
2023-04-19T16:26:03.949Z,16.35
2023-04-19T16:28:30.402Z,16.12
2023-04-19T16:30:57.114Z,16.01
2023-04-19T16:33:23.868Z,15.90
2023-04-19T16:35:50.276Z,15.60
2023-04-19T16:38:16.858Z,15.67
2023-04-19T16:40:46.073Z,15.49
2023-04-19T16:43:12.810Z,15.49
2023-04-19T16:45:39.815Z,15.09
2023-04-19T16:48:06.476Z,14.91
2023-04-19T16:50:33.129Z,14.53
2023-04-19T16:52:59.579Z,14.59
2023-04-19T16:55:26.012Z,14.40
2023-04-19T16:57:55.561Z,14.20
2023-04-19T17:00:22.979Z,14.24
2023-04-19T17:02:49.795Z,14.31
2023-04-19T17:05:16.410Z,14.24
2023-04-19T17:07:45.715Z,14.32
2023-04-19T17:10:12.481Z,14.35
2023-04-19T17:12:39.087Z,14.23
2023-04-19T17:15:06.163Z,14.07
2023-04-19T17:17:32.784Z,14.00
2023-04-19T17:19:59.249Z,13.81
2023-04-19T17:22:25.825Z,13.73
2023-04-19T17:24:53.993Z,13.36
2023-04-19T17:27:20.803Z,13.38
2023-04-19T17:29:47.266Z,13.35
2023-04-19T17:32:13.885Z,13.49
2023-04-19T17:34:40.347Z,13.46
2023-04-19T17:37:06.815Z,13.45
2023-04-19T17:39:33.242Z,13.36
2023-04-19T17:41:59.980Z,13.35
2023-04-19T17:44:26.883Z,13.32
2023-04-19T17:46:53.738Z,13.14
2023-04-19T17:49:21.648Z,13.02
2023-04-19T17:51:48.601Z,13.09
2023-04-19T17:54:15.982Z,12.91
2023-04-19T17:56:42.437Z,12.95
2023-04-19T17:59:08.996Z,12.81
2023-04-19T18:01:35.611Z,12.86
2023-04-19T18:04:03.454Z,12.81
2023-04-19T18:06:30.002Z,12.73
2023-04-19T18:08:56.475Z,12.58
2023-04-19T18:11:22.942Z,12.61
2023-04-19T18:13:49.641Z,12.61
2023-04-19T18:16:17.248Z,12.51
2023-04-19T18:18:44.377Z,12.49
2023-04-19T18:21:10.824Z,12.23
2023-04-19T18:23:37.404Z,12.13
2023-04-19T18:26:04.012Z,12.13
2023-04-19T18:28:30.940Z,11.99
2023-04-19T18:30:57.424Z,11.77
2023-04-19T18:33:24.007Z,11.74
2023-04-19T18:35:50.468Z,11.83
2023-04-19T18:38:16.947Z,11.75
2023-04-19T18:40:43.390Z,11.71
2023-04-19T18:43:10.302Z,11.64
2023-04-19T18:45:37.219Z,11.59
2023-04-19T18:48:03.934Z,11.36
2023-04-19T18:50:30.967Z,11.25
2023-04-19T18:52:57.820Z,11.25
2023-04-19T18:55:24.708Z,11.27
2023-04-19T18:57:51.128Z,11.28
2023-04-19T19:00:18.710Z,11.22
2023-04-19T19:02:45.996Z,11.05
2023-04-19T19:05:13.676Z,10.99
2023-04-19T19:07:41.598Z,10.90
2023-04-19T19:12:39.693Z,10.84
2023-04-19T19:15:07.127Z,10.85
2023-04-19T19:17:33.721Z,10.73
2023-04-19T19:20:00.801Z,10.66
2023-04-19T19:22:28.841Z,10.60
2023-04-19T19:24:56.199Z,10.65
2023-04-19T19:27:22.790Z,10.58
2023-04-19T19:29:49.494Z,10.50
2023-04-19T19:32:16.168Z,10.56
2023-04-19T19:34:54.056Z,10.45
2023-04-19T19:37:23.015Z,10.33
2023-04-19T19:39:49.905Z,10.38
2023-04-19T19:42:17.625Z,10.37
2023-04-19T19:44:44.601Z,10.39
2023-04-19T19:47:12.214Z,10.36
2023-04-19T19:52:08.534Z,10.35
2023-04-19T19:54:35.237Z,10.36
2023-04-19T19:59:34.849Z,10.32
2023-04-19T20:02:02.406Z,10.17
2023-04-19T20:04:29.710Z,10.06
2023-04-19T20:09:27.668Z,10.12
2023-04-19T20:11:54.404Z,9.80
2023-04-19T20:14:23.468Z,9.79
2023-04-19T20:16:50.237Z,9.79
2023-04-19T20:19:16.993Z,9.83
2023-04-19T20:21:43.796Z,9.71
2023-04-19T20:24:10.571Z,9.78
2023-04-19T20:26:37.034Z,9.76
2023-04-19T20:29:03.478Z,9.58
2023-04-19T20:31:30.078Z,9.65
2023-04-19T20:33:56.804Z,9.63
2023-04-19T20:36:23.398Z,9.73
2023-04-19T20:38:50.828Z,9.61
2023-04-19T20:41:18.395Z,9.74
2023-04-19T20:43:45.068Z,9.69
2023-04-19T20:46:11.715Z,9.74
2023-04-19T20:48:38.210Z,9.84
2023-04-19T20:51:04.665Z,10.00
2023-04-19T20:53:31.471Z,9.93
2023-04-19T20:55:57.953Z,9.97
2023-04-19T20:58:24.470Z,10.04
2023-04-19T21:00:51.068Z,10.00
2023-04-19T21:03:17.733Z,10.09
2023-04-19T21:05:44.614Z,10.03
2023-04-19T21:08:11.229Z,10.03
2023-04-19T21:10:37.774Z,9.97
2023-04-19T21:13:04.351Z,10.00
2023-04-19T21:15:30.986Z,9.97
2023-04-19T21:17:57.597Z,9.94
2023-04-19T21:20:24.097Z,10.00
2023-04-19T21:22:50.671Z,10.02
2023-04-19T21:25:17.144Z,9.95
2023-04-19T21:27:43.600Z,9.97
2023-04-19T21:30:11.125Z,10.00
2023-04-19T21:32:37.900Z,9.97
2023-04-19T21:35:04.785Z,10.04
2023-04-19T21:37:31.254Z,10.07
2023-04-19T21:39:57.759Z,10.06
2023-04-19T21:42:24.434Z,10.07
2023-04-19T21:44:50.899Z,10.08
2023-04-19T21:47:17.524Z,10.11
2023-04-19T21:49:43.976Z,10.23
2023-04-19T21:52:10.932Z,10.18
2023-04-19T21:54:37.338Z,10.20
2023-04-19T21:57:04.014Z,10.06
2023-04-19T21:59:30.954Z,10.02
2023-04-19T22:01:58.834Z,10.07
2023-04-19T22:04:26.210Z,10.06
2023-04-19T22:06:52.614Z,10.16
2023-04-19T22:09:19.544Z,10.23
2023-04-19T22:11:45.956Z,10.26
2023-04-19T22:14:12.798Z,10.20
2023-04-19T22:16:39.391Z,10.17
2023-04-19T22:19:06.103Z,10.21
2023-04-19T22:21:32.754Z,10.30
2023-04-19T22:23:59.446Z,10.29
2023-04-19T22:26:26.675Z,10.38
2023-04-19T22:28:54.439Z,10.30
2023-04-19T22:31:20.867Z,10.35
2023-04-19T22:33:47.341Z,10.19
2023-04-19T22:36:13.776Z,10.12
2023-04-19T22:38:40.703Z,10.15
2023-04-19T22:41:07.095Z,10.11
2023-04-19T22:43:33.564Z,10.16
2023-04-19T22:46:01.008Z,10.17
2023-04-19T22:48:30.098Z,10.19
2023-04-19T22:50:56.727Z,10.29
2023-04-19T22:53:23.833Z,10.24
2023-04-19T22:55:50.495Z,10.23
2023-04-19T22:58:18.422Z,10.17
2023-04-19T23:00:45.078Z,10.11
2023-04-19T23:03:11.624Z,10.18
2023-04-19T23:05:38.052Z,10.20
2023-04-19T23:08:04.913Z,10.23
2023-04-19T23:10:31.686Z,10.19
2023-04-19T23:12:58.232Z,10.25
2023-04-19T23:15:25.017Z,10.22
2023-04-19T23:17:52.627Z,10.22
2023-04-19T23:20:19.218Z,10.20
2023-04-19T23:22:45.773Z,10.24
2023-04-19T23:25:12.299Z,10.22
2023-04-19T23:27:38.982Z,10.26
2023-04-19T23:30:07.639Z,10.12
2023-04-19T23:32:34.451Z,10.08
2023-04-19T23:35:01.182Z,10.16
2023-04-19T23:37:27.870Z,10.08
2023-04-19T23:39:54.308Z,10.07
2023-04-19T23:42:21.126Z,9.99
2023-04-19T23:44:47.579Z,10.07
2023-04-19T23:47:14.273Z,10.01
2023-04-19T23:49:40.683Z,9.95
2023-04-19T23:52:07.313Z,9.98
2023-04-19T23:54:33.787Z,9.99
2023-04-19T23:57:00.688Z,9.95
2023-04-19T23:59:27.258Z,9.97
